createdAt,value
2023-02-23T00:00:55.458Z,1006.77
2023-02-23T00:01:55.439Z,1006.75
2023-02-23T00:02:55.548Z,1006.72
2023-02-23T00:03:55.468Z,1006.74
2023-02-23T00:04:55.418Z,1006.73
2023-02-23T00:05:55.397Z,1006.74
2023-02-23T00:06:55.534Z,1006.74
2023-02-23T00:07:55.378Z,1006.68
2023-02-23T00:08:55.369Z,1006.71
2023-02-23T00:09:55.362Z,1006.72
2023-02-23T00:10:55.342Z,1006.77
2023-02-23T00:11:55.343Z,1006.74
2023-02-23T00:12:55.303Z,1006.75
2023-02-23T00:13:55.353Z,1006.72
2023-02-23T00:14:55.369Z,1006.72
2023-02-23T00:15:55.326Z,1006.70
2023-02-23T00:16:55.307Z,1006.72
2023-02-23T00:17:55.270Z,1006.71
2023-02-23T00:18:55.323Z,1006.70
2023-02-23T00:19:55.237Z,1006.72
2023-02-23T00:20:55.232Z,1006.70
2023-02-23T00:21:55.231Z,1006.69
2023-02-23T00:22:55.196Z,1006.70
2023-02-23T00:23:55.188Z,1006.68
2023-02-23T00:24:55.197Z,1006.68
2023-02-23T00:25:55.171Z,1006.69
2023-02-23T00:26:55.166Z,1006.70
2023-02-23T00:27:55.140Z,1006.66
2023-02-23T00:28:55.140Z,1006.71
2023-02-23T00:29:55.147Z,1006.72
2023-02-23T00:30:55.142Z,1006.68
2023-02-23T00:31:55.274Z,1006.65
2023-02-23T00:32:55.096Z,1006.64
2023-02-23T00:33:55.090Z,1006.65
2023-02-23T00:34:55.082Z,1006.64
2023-02-23T00:35:55.056Z,1006.59
2023-02-23T00:36:55.096Z,1006.64
2023-02-23T00:37:55.089Z,1006.59
2023-02-23T00:38:55.031Z,1006.62
2023-02-23T00:39:55.011Z,1006.60
2023-02-23T00:40:55.003Z,1006.56
2023-02-23T00:41:55.000Z,1006.60
2023-02-23T00:42:54.974Z,1006.56
2023-02-23T00:43:55.012Z,1006.58
2023-02-23T00:44:54.963Z,1006.56
2023-02-23T00:45:54.994Z,1006.57
2023-02-23T00:46:54.929Z,1006.57
2023-02-23T00:47:54.930Z,1006.56
2023-02-23T00:48:54.931Z,1006.57
2023-02-23T00:49:54.904Z,1006.53
2023-02-23T00:50:54.883Z,1006.54
2023-02-23T00:51:54.900Z,1006.53
2023-02-23T00:52:54.879Z,1006.56
2023-02-23T00:53:54.869Z,1006.54
2023-02-23T00:54:54.883Z,1006.51
2023-02-23T00:55:54.836Z,1006.56
2023-02-23T00:56:54.835Z,1006.58
2023-02-23T00:57:54.816Z,1006.55
2023-02-23T00:58:54.807Z,1006.57
2023-02-23T00:59:54.804Z,1006.57
2023-02-23T01:00:54.975Z,1006.56
2023-02-23T01:01:54.821Z,1006.59
2023-02-23T01:02:54.748Z,1006.59
2023-02-23T01:03:54.772Z,1006.54
2023-02-23T01:04:54.740Z,1006.55
2023-02-23T01:05:54.754Z,1006.58
2023-02-23T01:06:54.748Z,1006.58
2023-02-23T01:07:54.691Z,1006.58
2023-02-23T01:08:54.690Z,1006.57
2023-02-23T01:09:54.694Z,1006.56
2023-02-23T01:10:54.667Z,1006.57
2023-02-23T01:11:54.658Z,1006.55
2023-02-23T01:12:54.669Z,1006.57
2023-02-23T01:13:54.644Z,1006.57
2023-02-23T01:14:54.617Z,1006.59
2023-02-23T01:15:54.635Z,1006.57
2023-02-23T01:16:54.593Z,1006.57
2023-02-23T01:17:54.688Z,1006.56
2023-02-23T01:18:54.615Z,1006.54
2023-02-23T01:19:54.562Z,1006.53
2023-02-23T01:20:54.543Z,1006.52
2023-02-23T01:21:54.542Z,1006.50
2023-02-23T01:22:54.528Z,1006.56
2023-02-23T01:23:54.522Z,1006.53
2023-02-23T01:24:54.566Z,1006.52
2023-02-23T01:25:54.488Z,1006.54
2023-02-23T01:26:54.470Z,1006.55
2023-02-23T01:27:54.472Z,1006.57
2023-02-23T01:28:54.458Z,1006.55
2023-02-23T01:29:54.434Z,1006.49
2023-02-23T01:30:54.526Z,1006.53
2023-02-23T01:31:54.503Z,1006.54
2023-02-23T01:32:54.422Z,1006.53
2023-02-23T01:33:54.429Z,1006.50
2023-02-23T01:34:54.388Z,1006.52
2023-02-23T01:35:54.366Z,1006.54
2023-02-23T01:36:54.370Z,1006.56
2023-02-23T01:37:54.360Z,1006.51
2023-02-23T01:38:54.330Z,1006.52
2023-02-23T01:39:54.322Z,1006.51
2023-02-23T01:40:54.314Z,1006.52
2023-02-23T01:41:54.323Z,1006.50
2023-02-23T01:42:54.313Z,1006.52
2023-02-23T01:43:54.281Z,1006.52
2023-02-23T01:44:54.273Z,1006.52
2023-02-23T01:45:54.276Z,1006.50
2023-02-23T01:46:54.253Z,1006.51
2023-02-23T01:47:54.230Z,1006.51
2023-02-23T01:48:54.252Z,1006.49
2023-02-23T01:49:54.242Z,1006.46
2023-02-23T01:50:54.192Z,1006.46
2023-02-23T01:51:54.185Z,1006.48
2023-02-23T01:52:54.226Z,1006.45
2023-02-23T01:53:54.165Z,1006.44
2023-02-23T01:54:54.173Z,1006.45
2023-02-23T01:55:54.141Z,1006.50
2023-02-23T01:56:54.138Z,1006.46
2023-02-23T01:57:54.137Z,1006.47
2023-02-23T01:58:54.121Z,1006.46
2023-02-23T01:59:54.113Z,1006.43
2023-02-23T02:00:54.103Z,1006.41
2023-02-23T02:01:54.136Z,1006.44
2023-02-23T02:02:54.055Z,1006.45
2023-02-23T02:03:54.053Z,1006.41
2023-02-23T02:04:54.076Z,1006.44
2023-02-23T02:05:54.051Z,1006.45
2023-02-23T02:06:54.038Z,1006.45
2023-02-23T02:07:54.008Z,1006.44
2023-02-23T02:08:53.989Z,1006.46
2023-02-23T02:09:53.998Z,1006.46
2023-02-23T02:10:53.981Z,1006.43
2023-02-23T02:11:53.978Z,1006.44
2023-02-23T02:12:54.000Z,1006.44
2023-02-23T02:13:53.947Z,1006.42
2023-02-23T02:14:53.941Z,1006.44
2023-02-23T02:15:53.970Z,1006.47
2023-02-23T02:16:53.912Z,1006.40
2023-02-23T02:17:53.899Z,1006.44
2023-02-23T02:18:53.910Z,1006.44
2023-02-23T02:19:53.877Z,1006.44
2023-02-23T02:20:53.875Z,1006.44
2023-02-23T02:21:53.916Z,1006.43
2023-02-23T02:22:53.842Z,1006.40
2023-02-23T02:23:53.818Z,1006.40
2023-02-23T02:24:53.859Z,1006.43
2023-02-23T02:25:53.808Z,1006.40
2023-02-23T02:26:53.826Z,1006.43
2023-02-23T02:27:53.788Z,1006.41
2023-02-23T02:28:53.786Z,1006.41
2023-02-23T02:29:53.762Z,1006.40
2023-02-23T02:30:53.778Z,1006.40
2023-02-23T02:31:53.813Z,1006.41
2023-02-23T02:32:53.721Z,1006.42
2023-02-23T02:33:53.710Z,1006.39
2023-02-23T02:34:53.711Z,1006.41
2023-02-23T02:35:53.681Z,1006.40
2023-02-23T02:36:53.689Z,1006.41
2023-02-23T02:37:53.793Z,1006.39
2023-02-23T02:38:53.779Z,1006.40
2023-02-23T02:39:53.731Z,1006.30
2023-02-23T02:40:53.669Z,1006.29
2023-02-23T02:41:53.620Z,1006.31
2023-02-23T02:42:53.628Z,1006.26
2023-02-23T02:43:53.605Z,1006.29
2023-02-23T02:44:53.714Z,1006.29
2023-02-23T02:45:53.644Z,1006.28
2023-02-23T02:46:53.579Z,1006.26
2023-02-23T02:47:53.561Z,1006.29
2023-02-23T02:48:53.554Z,1006.27
2023-02-23T02:49:53.539Z,1006.25
2023-02-23T02:50:53.533Z,1006.27
2023-02-23T02:51:53.520Z,1006.27
2023-02-23T02:52:53.512Z,1006.26
2023-02-23T02:53:53.603Z,1006.28
2023-02-23T02:54:53.624Z,1006.23
2023-02-23T02:55:53.475Z,1006.25
2023-02-23T02:56:53.464Z,1006.24
2023-02-23T02:57:53.457Z,1006.24
2023-02-23T02:58:53.449Z,1006.26
2023-02-23T02:59:53.413Z,1006.23
2023-02-23T03:00:53.449Z,1006.18
2023-02-23T03:01:53.441Z,1006.18
2023-02-23T03:02:53.401Z,1006.16
2023-02-23T03:03:53.368Z,1006.17
2023-02-23T03:04:53.386Z,1006.18
2023-02-23T03:05:53.351Z,1006.14
2023-02-23T03:06:53.369Z,1006.17
2023-02-23T03:07:53.337Z,1006.18
2023-02-23T03:08:54.035Z,1006.19
2023-02-23T03:09:53.437Z,1006.16
2023-02-23T03:10:53.305Z,1006.15
2023-02-23T03:11:54.116Z,1006.15
2023-02-23T03:12:53.291Z,1006.15
2023-02-23T03:13:53.257Z,1006.15
2023-02-23T03:14:53.261Z,1006.16
2023-02-23T03:15:53.297Z,1006.15
2023-02-23T03:16:53.242Z,1006.16
2023-02-23T03:17:53.210Z,1006.15
2023-02-23T03:18:53.228Z,1006.16
2023-02-23T03:19:53.193Z,1006.17
2023-02-23T03:20:53.201Z,1006.21
2023-02-23T03:21:53.164Z,1006.16
2023-02-23T03:22:53.157Z,1006.19
2023-02-23T03:23:53.160Z,1006.22
2023-02-23T03:24:53.177Z,1006.24
2023-02-23T03:25:53.152Z,1006.23
2023-02-23T03:26:53.117Z,1006.18
2023-02-23T03:27:53.125Z,1006.22
2023-02-23T03:28:53.089Z,1006.23
2023-02-23T03:29:53.074Z,1006.20
2023-02-23T03:30:53.129Z,1006.23
2023-02-23T03:31:53.160Z,1006.26
2023-02-23T03:32:53.046Z,1006.25
2023-02-23T03:33:53.027Z,1006.29
2023-02-23T03:34:53.038Z,1006.31
2023-02-23T03:35:53.007Z,1006.31
2023-02-23T03:36:53.026Z,1006.32
2023-02-23T03:37:52.998Z,1006.33
2023-02-23T03:38:52.997Z,1006.35
2023-02-23T03:39:52.974Z,1006.36
2023-02-23T03:40:52.966Z,1006.32
2023-02-23T03:41:53.045Z,1006.33
2023-02-23T03:42:52.990Z,1006.32
2023-02-23T03:43:52.914Z,1006.34
2023-02-23T03:44:52.916Z,1006.32
2023-02-23T03:45:52.950Z,1006.34
2023-02-23T03:46:52.912Z,1006.34
2023-02-23T03:47:52.883Z,1006.32
2023-02-23T03:48:52.910Z,1006.33
2023-02-23T03:49:52.862Z,1006.34
2023-02-23T03:50:52.864Z,1006.32
2023-02-23T03:51:52.833Z,1006.32
2023-02-23T03:52:52.818Z,1006.30
2023-02-23T03:53:52.799Z,1006.35
2023-02-23T03:54:52.824Z,1006.32
2023-02-23T03:55:52.779Z,1006.35
2023-02-23T03:56:52.786Z,1006.31
2023-02-23T03:57:52.775Z,1006.35
2023-02-23T03:58:52.756Z,1006.35
2023-02-23T03:59:52.732Z,1006.34
2023-02-23T04:00:52.758Z,1006.36
2023-02-23T04:01:52.721Z,1006.34
2023-02-23T04:02:52.701Z,1006.38
2023-02-23T04:03:52.720Z,1006.35
2023-02-23T04:04:52.691Z,1006.37
2023-02-23T04:05:52.661Z,1006.40
2023-02-23T04:06:52.687Z,1006.39
2023-02-23T04:07:52.658Z,1006.37
2023-02-23T04:08:52.664Z,1006.37
2023-02-23T04:09:52.618Z,1006.42
2023-02-23T04:10:52.622Z,1006.41
2023-02-23T04:11:52.594Z,1006.42
2023-02-23T04:12:52.620Z,1006.46
2023-02-23T04:13:52.609Z,1006.46
2023-02-23T04:14:52.575Z,1006.42
2023-02-23T04:15:52.546Z,1006.47
2023-02-23T04:16:52.542Z,1006.41
2023-02-23T04:17:52.542Z,1006.42
2023-02-23T04:18:52.552Z,1006.41
2023-02-23T04:19:52.508Z,1006.44
2023-02-23T04:20:52.522Z,1006.43
2023-02-23T04:21:52.487Z,1006.43
2023-02-23T04:22:52.520Z,1006.40
2023-02-23T04:23:52.468Z,1006.46
2023-02-23T04:24:52.466Z,1006.46
2023-02-23T04:25:52.443Z,1006.41
2023-02-23T04:26:52.441Z,1006.43
2023-02-23T04:27:52.432Z,1006.46
2023-02-23T04:28:52.417Z,1006.52
2023-02-23T04:29:52.409Z,1006.48
2023-02-23T04:30:52.541Z,1006.49
2023-02-23T04:31:52.503Z,1006.48
2023-02-23T04:32:52.381Z,1006.48
2023-02-23T04:33:52.358Z,1006.53
2023-02-23T04:34:52.338Z,1006.48
2023-02-23T04:35:52.321Z,1006.51
2023-02-23T04:36:52.345Z,1006.50
2023-02-23T04:37:52.403Z,1006.49
2023-02-23T04:38:52.307Z,1006.48
2023-02-23T04:39:52.291Z,1006.49
2023-02-23T04:40:52.293Z,1006.52
2023-02-23T04:41:52.258Z,1006.49
2023-02-23T04:42:52.344Z,1006.50
2023-02-23T04:43:52.235Z,1006.48
2023-02-23T04:44:52.234Z,1006.53
2023-02-23T04:45:52.299Z,1006.50
2023-02-23T04:46:52.200Z,1006.48
2023-02-23T04:47:52.305Z,1006.50
2023-02-23T04:48:52.208Z,1006.53
2023-02-23T04:49:52.178Z,1006.53
2023-02-23T04:50:52.175Z,1006.52
2023-02-23T04:51:52.142Z,1006.58
2023-02-23T04:52:52.226Z,1006.59
2023-02-23T04:53:52.133Z,1006.58
2023-02-23T04:54:52.150Z,1006.58
2023-02-23T04:55:52.115Z,1006.61
2023-02-23T04:56:52.093Z,1006.62
2023-02-23T04:57:52.207Z,1006.60
2023-02-23T04:58:52.081Z,1006.61
2023-02-23T04:59:52.049Z,1006.61
2023-02-23T05:00:52.082Z,1006.59
2023-02-23T05:01:52.059Z,1006.59
2023-02-23T05:02:52.088Z,1006.61
2023-02-23T05:03:52.026Z,1006.61
2023-02-23T05:04:52.026Z,1006.57
2023-02-23T05:05:51.984Z,1006.57
2023-02-23T05:06:52.000Z,1006.56
2023-02-23T05:07:51.985Z,1006.58
2023-02-23T05:08:51.953Z,1006.64
2023-02-23T05:09:51.954Z,1006.58
2023-02-23T05:10:51.930Z,1006.64
2023-02-23T05:11:51.943Z,1006.63
2023-02-23T05:12:51.931Z,1006.67
2023-02-23T05:13:51.892Z,1006.66
2023-02-23T05:14:51.904Z,1006.64
2023-02-23T05:15:51.910Z,1006.67
2023-02-23T05:16:51.890Z,1006.67
2023-02-23T05:17:51.884Z,1006.68
2023-02-23T05:18:51.843Z,1006.67
2023-02-23T05:19:51.836Z,1006.75
2023-02-23T05:20:51.831Z,1006.73
2023-02-23T05:21:51.823Z,1006.76
2023-02-23T05:22:51.813Z,1006.75
2023-02-23T05:23:51.781Z,1006.80
2023-02-23T05:24:51.773Z,1006.79
2023-02-23T05:25:51.768Z,1006.80
2023-02-23T05:26:51.767Z,1006.86
2023-02-23T05:27:51.745Z,1006.85
2023-02-23T05:28:51.724Z,1006.82
2023-02-23T05:29:51.718Z,1006.84
2023-02-23T05:30:51.830Z,1006.84
2023-02-23T05:31:51.817Z,1006.84
2023-02-23T05:32:51.687Z,1006.84
2023-02-23T05:33:51.712Z,1006.82
2023-02-23T05:34:51.669Z,1006.81
2023-02-23T05:35:51.656Z,1006.82
2023-02-23T05:36:51.658Z,1006.84
2023-02-23T05:37:51.634Z,1006.82
2023-02-23T05:38:51.613Z,1006.84
2023-02-23T05:39:51.653Z,1006.83
2023-02-23T05:40:51.599Z,1006.84
2023-02-23T05:41:51.586Z,1006.88
2023-02-23T05:42:51.578Z,1006.87
2023-02-23T05:43:51.559Z,1006.86
2023-02-23T05:44:51.552Z,1006.86
2023-02-23T05:45:51.635Z,1006.87
2023-02-23T05:46:51.540Z,1006.87
2023-02-23T05:47:51.522Z,1006.84
2023-02-23T05:48:51.525Z,1006.85
2023-02-23T05:49:51.512Z,1006.86
2023-02-23T05:50:51.478Z,1006.88
2023-02-23T05:51:51.487Z,1006.90
2023-02-23T05:52:51.465Z,1006.88
2023-02-23T05:53:51.449Z,1006.86
2023-02-23T05:54:51.429Z,1006.93
2023-02-23T05:55:51.411Z,1006.91
2023-02-23T05:56:51.430Z,1006.95
2023-02-23T05:57:51.386Z,1006.93
2023-02-23T05:58:51.441Z,1006.95
2023-02-23T05:59:51.364Z,1006.97
2023-02-23T06:00:51.370Z,1006.95
2023-02-23T06:01:51.366Z,1006.97
2023-02-23T06:02:51.371Z,1006.95
2023-02-23T06:03:51.401Z,1006.98
2023-02-23T06:04:51.331Z,1006.97
2023-02-23T06:05:51.394Z,1006.99
2023-02-23T06:06:51.329Z,1006.98
2023-02-23T06:07:51.295Z,1006.96
2023-02-23T06:08:51.271Z,1007.01
2023-02-23T06:09:51.268Z,1006.99
2023-02-23T06:10:51.265Z,1007.00
2023-02-23T06:11:51.242Z,1006.99
2023-02-23T06:12:51.288Z,1007.00
2023-02-23T06:13:51.222Z,1006.99
2023-02-23T06:14:51.199Z,1006.99
2023-02-23T06:15:51.206Z,1007.02
2023-02-23T06:16:51.255Z,1007.06
2023-02-23T06:17:51.181Z,1007.04
2023-02-23T06:18:51.173Z,1007.04
2023-02-23T06:19:51.139Z,1007.04
2023-02-23T06:20:51.131Z,1007.04
2023-02-23T06:21:51.136Z,1007.07
2023-02-23T06:22:51.150Z,1007.07
2023-02-23T06:23:51.106Z,1007.07
2023-02-23T06:24:51.085Z,1007.09
2023-02-23T06:25:51.089Z,1007.08
2023-02-23T06:26:51.071Z,1007.06
2023-02-23T06:27:51.149Z,1007.09
2023-02-23T06:28:51.090Z,1007.09
2023-02-23T06:29:51.033Z,1007.11
2023-02-23T06:30:51.057Z,1007.11
2023-02-23T06:31:51.078Z,1007.17
2023-02-23T06:32:51.071Z,1007.12
2023-02-23T06:33:51.034Z,1007.13
2023-02-23T06:34:50.968Z,1007.16
2023-02-23T06:35:50.981Z,1007.11
2023-02-23T06:36:50.959Z,1007.13
2023-02-23T06:50:29.615Z,1007.34
2023-02-23T06:52:48.075Z,1007.35
2023-02-23T06:53:48.069Z,1007.35
2023-02-23T06:54:48.049Z,1007.38
2023-02-23T06:55:48.045Z,1007.40
2023-02-23T06:56:48.026Z,1007.40
2023-02-23T06:57:48.007Z,1007.44
2023-02-23T06:58:48.044Z,1007.41
2023-02-23T06:59:47.988Z,1007.45
2023-02-23T07:00:47.982Z,1007.44
2023-02-23T07:01:48.054Z,1007.45
2023-02-23T07:02:47.968Z,1007.48
2023-02-23T07:03:48.024Z,1007.49
2023-02-23T07:11:09.190Z,1007.54
2023-02-23T07:12:09.114Z,1007.55
2023-02-23T07:13:09.096Z,1007.57
2023-02-23T07:14:12.814Z,1007.62
2023-02-23T07:15:10.069Z,1007.65
2023-02-23T07:16:09.089Z,1007.65
2023-02-23T07:17:11.591Z,1007.68
2023-02-23T07:18:09.045Z,1007.68
2023-02-23T07:19:09.018Z,1007.67
2023-02-23T07:20:09.019Z,1007.72
2023-02-23T07:21:08.991Z,1007.69
2023-02-23T07:22:09.135Z,1007.67
2023-02-23T07:23:08.969Z,1007.71
2023-02-23T07:24:08.974Z,1007.76
2023-02-23T07:25:08.958Z,1007.76
2023-02-23T07:26:08.946Z,1007.73
2023-02-23T07:27:08.960Z,1007.76
2023-02-23T07:28:08.944Z,1007.79
2023-02-23T07:29:08.915Z,1007.80
2023-02-23T07:30:08.908Z,1007.80
2023-02-23T07:31:08.899Z,1007.80
2023-02-23T07:32:09.113Z,1007.80
2023-02-23T07:33:08.912Z,1007.77
2023-02-23T07:34:08.868Z,1007.81
2023-02-23T07:35:08.838Z,1007.79
2023-02-23T07:36:08.842Z,1007.84
2023-02-23T07:37:08.814Z,1007.83
2023-02-23T07:38:08.807Z,1007.81
2023-02-23T07:39:08.811Z,1007.84
2023-02-23T07:40:08.782Z,1007.84
2023-02-23T07:41:08.805Z,1007.83
2023-02-23T07:42:08.772Z,1007.82
2023-02-23T07:43:08.781Z,1007.84
2023-02-23T07:44:08.763Z,1007.83
2023-02-23T07:45:08.740Z,1007.81
2023-02-23T07:46:08.832Z,1007.81
2023-02-23T07:47:08.714Z,1007.81
2023-02-23T07:48:08.707Z,1007.83
2023-02-23T07:49:08.704Z,1007.82
2023-02-23T07:50:08.684Z,1007.81
2023-02-23T07:51:10.034Z,1007.86
2023-02-23T07:52:08.657Z,1007.85
2023-02-23T07:53:08.653Z,1007.89
2023-02-23T07:54:08.656Z,1007.90
2023-02-23T07:55:08.632Z,1007.89
2023-02-23T07:56:08.624Z,1007.93
2023-02-23T07:57:08.604Z,1007.92
2023-02-23T07:58:08.598Z,1007.95
2023-02-23T07:59:08.625Z,1007.91
2023-02-23T08:00:08.559Z,1007.94
2023-02-23T08:01:08.562Z,1007.95
2023-02-23T08:02:08.551Z,1007.94
2023-02-23T08:03:08.536Z,1007.93
2023-02-23T08:04:08.623Z,1007.92
2023-02-23T08:05:08.498Z,1007.96
2023-02-23T08:06:08.488Z,1007.96
2023-02-23T08:07:08.477Z,1007.96
2023-02-23T08:08:08.483Z,1007.94
2023-02-23T08:09:08.500Z,1007.95
2023-02-23T08:10:08.465Z,1008.00
2023-02-23T08:11:08.454Z,1007.93
2023-02-23T08:12:08.423Z,1007.97
2023-02-23T08:13:08.406Z,1007.99
2023-02-23T08:14:08.428Z,1007.99
2023-02-23T08:15:08.486Z,1008.05
2023-02-23T08:16:08.377Z,1008.04
2023-02-23T08:17:08.378Z,1008.10
2023-02-23T08:18:08.439Z,1008.12
2023-02-23T08:19:08.373Z,1008.09
2023-02-23T08:20:08.347Z,1008.06
2023-02-23T08:21:08.320Z,1008.14
2023-02-23T08:22:09.993Z,1008.13
2023-02-23T08:23:08.294Z,1008.13
2023-02-23T08:24:08.296Z,1008.15
2023-02-23T08:25:08.308Z,1008.15
2023-02-23T08:26:08.310Z,1008.17
2023-02-23T08:27:08.254Z,1008.14
2023-02-23T08:28:08.247Z,1008.21
2023-02-23T08:29:08.226Z,1008.22
2023-02-23T08:30:08.267Z,1008.22
2023-02-23T08:31:08.444Z,1008.23
2023-02-23T08:32:08.346Z,1008.16
2023-02-23T08:33:08.177Z,1008.24
2023-02-23T08:34:08.179Z,1008.22
2023-02-23T08:35:08.164Z,1008.18
2023-02-23T08:36:08.202Z,1008.19
2023-02-23T08:37:08.158Z,1008.22
2023-02-23T08:38:08.136Z,1008.21
2023-02-23T08:39:08.127Z,1008.20
2023-02-23T08:40:08.107Z,1008.22
2023-02-23T08:41:08.120Z,1008.21
2023-02-23T08:42:08.085Z,1008.20
2023-02-23T08:43:08.062Z,1008.21
2023-02-23T08:44:08.058Z,1008.21
2023-02-23T08:45:08.678Z,1008.23
2023-02-23T08:46:08.125Z,1008.24
2023-02-23T08:47:08.054Z,1008.24
2023-02-23T08:48:08.024Z,1008.27
2023-02-23T08:49:08.012Z,1008.28
2023-02-23T08:50:07.984Z,1008.24
2023-02-23T08:51:07.995Z,1008.27
2023-02-23T08:52:07.972Z,1008.26
2023-02-23T08:53:07.950Z,1008.30
2023-02-23T08:54:07.973Z,1008.32
2023-02-23T08:55:07.933Z,1008.32
2023-02-23T08:56:07.946Z,1008.32
2023-02-23T08:57:07.928Z,1008.31
2023-02-23T08:58:07.907Z,1008.35
2023-02-23T08:59:07.888Z,1008.34
2023-02-23T09:00:07.881Z,1008.34
2023-02-23T09:01:07.906Z,1008.35
2023-02-23T09:02:07.855Z,1008.35
2023-02-23T09:03:07.867Z,1008.36
2023-02-23T09:04:07.827Z,1008.36
2023-02-23T09:05:07.876Z,1008.37
2023-02-23T09:06:07.872Z,1008.40
2023-02-23T09:07:07.785Z,1008.40
2023-02-23T09:08:07.825Z,1008.40
2023-02-23T09:09:07.792Z,1008.36
2023-02-23T09:10:07.766Z,1008.38
2023-02-23T09:11:07.736Z,1008.40
2023-02-23T09:12:07.744Z,1008.43
2023-02-23T09:13:07.712Z,1008.45
2023-02-23T09:14:07.713Z,1008.50
2023-02-23T09:15:07.704Z,1008.45
2023-02-23T09:16:07.794Z,1008.48
2023-02-23T09:17:07.695Z,1008.47
2023-02-23T09:18:07.679Z,1008.46
2023-02-23T09:19:07.733Z,1008.47
2023-02-23T09:20:07.642Z,1008.48
2023-02-23T09:21:07.649Z,1008.47
2023-02-23T09:22:07.645Z,1008.46
2023-02-23T09:23:07.627Z,1008.49
2023-02-23T09:24:07.600Z,1008.48
2023-02-23T09:25:07.590Z,1008.48
2023-02-23T09:26:07.586Z,1008.47
2023-02-23T09:27:07.585Z,1008.48
2023-02-23T09:28:07.560Z,1008.49
2023-02-23T09:29:07.545Z,1008.53
2023-02-23T09:30:07.533Z,1008.49
2023-02-23T09:31:07.710Z,1008.52
2023-02-23T09:32:07.637Z,1008.51
2023-02-23T09:33:07.487Z,1008.50
2023-02-23T09:34:07.479Z,1008.50
2023-02-23T09:35:07.553Z,1008.50
2023-02-23T09:36:07.473Z,1008.51
2023-02-23T09:37:07.455Z,1008.54
2023-02-23T09:38:07.452Z,1008.54
2023-02-23T09:39:07.438Z,1008.59
2023-02-23T09:40:07.425Z,1008.57
2023-02-23T09:41:07.409Z,1008.56
2023-02-23T09:42:07.388Z,1008.60
2023-02-23T09:43:07.392Z,1008.59
2023-02-23T09:44:07.372Z,1008.61
2023-02-23T09:45:07.369Z,1008.62
2023-02-23T09:46:07.402Z,1008.65
2023-02-23T09:47:07.328Z,1008.66
2023-02-23T09:48:07.337Z,1008.67
2023-02-23T09:49:07.369Z,1008.66
2023-02-23T09:50:07.299Z,1008.66
2023-02-23T09:51:07.317Z,1008.66
2023-02-23T09:52:07.290Z,1008.65
2023-02-23T09:53:07.293Z,1008.70
2023-02-23T09:54:07.294Z,1008.69
2023-02-23T09:55:07.267Z,1008.69
2023-02-23T09:56:07.232Z,1008.69
2023-02-23T09:57:07.238Z,1008.70
2023-02-23T09:58:07.215Z,1008.68
2023-02-23T09:59:09.705Z,1008.73
2023-02-23T10:00:07.236Z,1008.71
2023-02-23T10:01:07.274Z,1008.74
2023-02-23T10:02:07.190Z,1008.75
2023-02-23T10:03:07.158Z,1008.78
2023-02-23T10:04:07.181Z,1008.75
2023-02-23T10:05:07.221Z,1008.77
2023-02-23T10:06:07.136Z,1008.75
2023-02-23T10:07:07.130Z,1008.83
2023-02-23T10:08:07.115Z,1008.82
2023-02-23T10:09:07.095Z,1008.85
2023-02-23T10:10:07.364Z,1008.85
2023-02-23T10:11:07.094Z,1008.85
2023-02-23T10:12:07.084Z,1008.86
2023-02-23T10:13:07.048Z,1008.84
2023-02-23T10:14:07.028Z,1008.86
2023-02-23T10:15:07.022Z,1008.87
2023-02-23T10:16:07.105Z,1008.89
2023-02-23T10:17:07.002Z,1008.88
2023-02-23T10:18:06.996Z,1008.92
2023-02-23T10:19:06.983Z,1008.90
2023-02-23T10:20:06.973Z,1008.90
2023-02-23T10:21:06.999Z,1008.91
2023-02-23T10:22:06.954Z,1008.93
2023-02-23T10:23:07.003Z,1008.94
2023-02-23T10:24:06.921Z,1008.92
2023-02-23T10:25:06.897Z,1008.93
2023-02-23T10:26:06.921Z,1008.93
2023-02-23T10:27:06.874Z,1008.94
2023-02-23T10:28:06.868Z,1008.92
2023-02-23T10:29:06.868Z,1008.96
2023-02-23T10:30:06.848Z,1009.00
2023-02-23T10:31:06.969Z,1008.97
2023-02-23T10:32:06.937Z,1008.97
2023-02-23T10:33:06.829Z,1008.95
2023-02-23T10:34:06.877Z,1008.97
2023-02-23T10:35:06.813Z,1009.01
2023-02-23T10:36:13.337Z,1008.99
2023-02-23T10:37:07.776Z,1009.01
2023-02-23T10:38:06.752Z,1009.01
2023-02-23T10:39:06.818Z,1009.00
2023-02-23T10:40:06.741Z,1009.00
2023-02-23T10:41:06.726Z,1009.02
2023-02-23T10:42:06.722Z,1009.01
2023-02-23T10:43:06.694Z,1009.00
2023-02-23T10:44:16.199Z,1009.01
2023-02-23T10:45:07.669Z,1009.03
2023-02-23T10:46:06.756Z,1009.05
2023-02-23T10:47:06.665Z,1009.06
2023-02-23T10:48:06.658Z,1009.06
2023-02-23T10:49:06.634Z,1009.09
2023-02-23T10:50:06.662Z,1009.08
2023-02-23T10:51:06.633Z,1009.09
2023-02-23T10:52:06.611Z,1009.10
2023-02-23T10:53:06.580Z,1009.07
2023-02-23T10:54:08.225Z,1009.10
2023-02-23T10:55:06.593Z,1009.09
2023-02-23T10:56:06.564Z,1009.11
2023-02-23T10:57:06.545Z,1009.07
2023-02-23T10:58:06.553Z,1009.10
2023-02-23T10:59:06.512Z,1009.11
2023-02-23T11:00:06.501Z,1009.10
2023-02-23T11:01:06.520Z,1009.10
2023-02-23T11:02:06.533Z,1009.08
2023-02-23T11:03:06.478Z,1009.08
2023-02-23T11:04:06.484Z,1009.12
2023-02-23T11:05:06.544Z,1009.12
2023-02-23T11:06:06.458Z,1009.09
2023-02-23T11:07:06.434Z,1009.09
2023-02-23T11:08:06.422Z,1009.07
2023-02-23T11:09:06.402Z,1009.06
2023-02-23T11:10:06.392Z,1009.08
2023-02-23T11:11:06.428Z,1009.08
2023-02-23T11:12:06.372Z,1009.09
2023-02-23T11:13:06.352Z,1009.13
2023-02-23T11:14:06.337Z,1009.11
2023-02-23T11:15:06.333Z,1009.10
2023-02-23T11:16:06.439Z,1009.11
2023-02-23T11:17:06.330Z,1009.11
2023-02-23T11:18:06.339Z,1009.10
2023-02-23T11:19:06.300Z,1009.12
2023-02-23T11:20:06.288Z,1009.09
2023-02-23T11:21:06.288Z,1009.08
2023-02-23T11:22:06.252Z,1009.08
2023-02-23T11:23:13.977Z,1009.10
2023-02-23T11:24:07.220Z,1009.10
2023-02-23T11:25:06.226Z,1009.12
2023-02-23T11:26:06.257Z,1009.10
2023-02-23T11:27:06.224Z,1009.11
2023-02-23T11:28:06.180Z,1009.08
2023-02-23T11:29:06.184Z,1009.11
2023-02-23T11:30:06.225Z,1009.08
2023-02-23T11:31:06.277Z,1009.07
2023-02-23T11:32:09.908Z,1009.06
2023-02-23T11:33:06.121Z,1009.09
2023-02-23T11:34:06.107Z,1009.08
2023-02-23T11:35:06.118Z,1009.06
2023-02-23T11:36:06.130Z,1009.07
2023-02-23T11:37:06.075Z,1009.02
2023-02-23T11:38:06.087Z,1009.04
2023-02-23T11:39:06.052Z,1009.02
2023-02-23T11:40:06.058Z,1009.03
2023-02-23T11:41:06.042Z,1009.00
2023-02-23T11:42:06.052Z,1009.00
2023-02-23T11:43:06.116Z,1009.00
2023-02-23T11:44:06.550Z,1009.01
2023-02-23T11:45:05.996Z,1009.04
2023-02-23T11:46:06.028Z,1009.00
2023-02-23T11:47:06.104Z,1008.99
2023-02-23T11:48:05.985Z,1008.99
2023-02-23T11:49:05.951Z,1009.03
2023-02-23T11:50:05.942Z,1008.97
2023-02-23T11:51:05.942Z,1008.93
2023-02-23T11:52:05.919Z,1008.98
2023-02-23T11:53:05.937Z,1008.99
2023-02-23T11:54:06.033Z,1008.96
2023-02-23T11:55:05.870Z,1008.96
2023-02-23T11:56:05.881Z,1008.94
2023-02-23T11:57:05.848Z,1008.95
2023-02-23T11:58:05.861Z,1008.91
2023-02-23T11:59:05.887Z,1008.95
2023-02-23T12:00:05.826Z,1008.95
2023-02-23T12:01:05.825Z,1008.92
2023-02-23T12:02:05.794Z,1008.90
2023-02-23T12:03:05.850Z,1008.91
2023-02-23T12:04:05.769Z,1008.92
2023-02-23T12:05:05.828Z,1008.94
2023-02-23T12:06:05.843Z,1008.91
2023-02-23T12:07:05.742Z,1008.94
2023-02-23T12:08:05.829Z,1008.96
2023-02-23T12:09:05.724Z,1008.95
2023-02-23T12:10:05.704Z,1008.95
2023-02-23T12:11:05.706Z,1008.96
2023-02-23T12:12:05.679Z,1008.96
2023-02-23T12:13:05.694Z,1008.98
2023-02-23T12:14:05.666Z,1008.98
2023-02-23T12:15:05.725Z,1008.94
2023-02-23T12:16:05.703Z,1008.96
2023-02-23T12:17:05.688Z,1008.96
2023-02-23T12:18:05.619Z,1008.93
2023-02-23T12:19:05.616Z,1008.92
2023-02-23T12:20:05.647Z,1008.95
2023-02-23T12:21:05.636Z,1008.92
2023-02-23T12:22:05.569Z,1008.90
2023-02-23T12:23:05.581Z,1008.90
2023-02-23T12:24:05.556Z,1008.89
2023-02-23T12:25:05.541Z,1008.90
2023-02-23T12:26:05.528Z,1008.92